Terminal Aerodrome Forecast
Issued by NWS

Home | Current Version | Previous Version | Text Only | Print | Product List | Glossary Off
Versions: 1 2 3 4 5 6 7 8 9 10 11 12 13 14 15 16 17 18 19 20 21 22 23

000
FTUS41 KCLE 262334
TAFFDY
TAF
KFDY 262334Z 2700/2724 20010KT 6SM -SHRA VCTS BKN025CB OVC035
      TEMPO 2700/2704 2SM -TSRA OVC015CB
     FM270500 20004KT 6SM BR BKN012
     FM270900 23006KT 3SM BR OVC008
     FM271500 24008KT P6SM BKN025
     FM271800 22006KT P6SM BKN050 OVC100=

USA.gov is the U.S. government's official web portal to all federal, state and local government web resources and services.